sensor_id;sensor_type;location;lat;lon;timestamp;P1;durP1;ratioP1;P2;durP2;ratioP2
60612;SDS011;46443;59.792;17.626;2023-04-08T00:02:05;5.10;;;2.67;;
60612;SDS011;46443;59.792;17.626;2023-04-08T00:04:31;6.45;;;2.90;;
60612;SDS011;46443;59.792;17.626;2023-04-08T00:06:57;4.93;;;2.70;;
60612;SDS011;46443;59.792;17.626;2023-04-08T00:09:23;5.55;;;2.72;;
60612;SDS011;46443;59.792;17.626;2023-04-08T00:11:50;4.05;;;2.53;;
60612;SDS011;46443;59.792;17.626;2023-04-08T00:14:16;4.32;;;2.78;;
60612;SDS011;46443;59.792;17.626;2023-04-08T00:16:42;7.45;;;2.67;;
60612;SDS011;46443;59.792;17.626;2023-04-08T00:19:08;3.75;;;2.50;;
60612;SDS011;46443;59.792;17.626;2023-04-08T00:21:35;4.85;;;2.83;;
60612;SDS011;46443;59.792;17.626;2023-04-08T00:24:01;5.18;;;2.75;;
60612;SDS011;46443;59.792;17.626;2023-04-08T00:26:27;6.78;;;3.22;;
60612;SDS011;46443;59.792;17.626;2023-04-08T00:28:53;4.00;;;2.60;;
60612;SDS011;46443;59.792;17.626;2023-04-08T00:31:19;4.75;;;2.63;;
60612;SDS011;46443;59.792;17.626;2023-04-08T00:33:46;5.90;;;2.78;;
60612;SDS011;46443;59.792;17.626;2023-04-08T00:36:12;5.38;;;2.70;;
60612;SDS011;46443;59.792;17.626;2023-04-08T00:38:38;4.13;;;2.78;;
60612;SDS011;46443;59.792;17.626;2023-04-08T00:41:04;5.30;;;2.58;;
60612;SDS011;46443;59.792;17.626;2023-04-08T00:43:30;4.40;;;2.70;;
60612;SDS011;46443;59.792;17.626;2023-04-08T00:45:56;4.22;;;2.60;;
60612;SDS011;46443;59.792;17.626;2023-04-08T00:48:22;3.67;;;2.60;;
60612;SDS011;46443;59.792;17.626;2023-04-08T00:50:48;4.30;;;2.70;;
60612;SDS011;46443;59.792;17.626;2023-04-08T00:53:15;5.03;;;2.83;;
60612;SDS011;46443;59.792;17.626;2023-04-08T00:55:42;5.97;;;2.60;;
60612;SDS011;46443;59.792;17.626;2023-04-08T00:58:08;5.68;;;2.67;;
60612;SDS011;46443;59.792;17.626;2023-04-08T01:00:34;6.15;;;2.83;;
60612;SDS011;46443;59.792;17.626;2023-04-08T01:05:35;4.88;;;2.65;;
60612;SDS011;46443;59.792;17.626;2023-04-08T01:08:05;5.22;;;2.90;;
60612;SDS011;46443;59.792;17.626;2023-04-08T01:10:32;4.28;;;2.58;;
60612;SDS011;46443;59.792;17.626;2023-04-08T01:13:00;5.32;;;2.72;;
60612;SDS011;46443;59.792;17.626;2023-04-08T01:15:28;5.07;;;2.45;;
60612;SDS011;46443;59.792;17.626;2023-04-08T01:17:55;4.18;;;2.45;;
60612;SDS011;46443;59.792;17.626;2023-04-08T01:20:25;5.72;;;2.83;;
60612;SDS011;46443;59.792;17.626;2023-04-08T01:25:20;4.53;;;2.58;;
60612;SDS011;46443;59.792;17.626;2023-04-08T01:27:47;4.38;;;2.42;;
60612;SDS011;46443;59.792;17.626;2023-04-08T01:30:14;5.50;;;2.53;;
60612;SDS011;46443;59.792;17.626;2023-04-08T01:32:40;4.57;;;2.45;;
60612;SDS011;46443;59.792;17.626;2023-04-08T01:35:07;4.18;;;2.60;;
60612;SDS011;46443;59.792;17.626;2023-04-08T01:37:34;6.13;;;2.70;;
60612;SDS011;46443;59.792;17.626;2023-04-08T01:40:00;5.13;;;2.50;;
60612;SDS011;46443;59.792;17.626;2023-04-08T01:42:27;4.45;;;2.63;;
60612;SDS011;46443;59.792;17.626;2023-04-08T01:44:54;5.60;;;2.28;;
60612;SDS011;46443;59.792;17.626;2023-04-08T01:47:20;5.00;;;2.60;;
60612;SDS011;46443;59.792;17.626;2023-04-08T01:49:47;5.28;;;2.58;;
60612;SDS011;46443;59.792;17.626;2023-04-08T01:52:14;4.43;;;2.63;;
60612;SDS011;46443;59.792;17.626;2023-04-08T01:54:41;3.90;;;2.50;;
60612;SDS011;46443;59.792;17.626;2023-04-08T01:57:07;4.50;;;2.80;;
60612;SDS011;46443;59.792;17.626;2023-04-08T01:59:37;3.10;;;2.22;;
60612;SDS011;46443;59.792;17.626;2023-04-08T02:02:04;5.07;;;2.50;;
60612;SDS011;46443;59.792;17.626;2023-04-08T02:04:32;4.32;;;2.75;;
60612;SDS011;46443;59.792;17.626;2023-04-08T02:06:58;4.68;;;2.78;;
60612;SDS011;46443;59.792;17.626;2023-04-08T02:09:25;5.18;;;2.50;;
60612;SDS011;46443;59.792;17.626;2023-04-08T02:11:52;4.38;;;2.55;;
60612;SDS011;46443;59.792;17.626;2023-04-08T02:14:18;4.90;;;2.53;;
60612;SDS011;46443;59.792;17.626;2023-04-08T02:16:54;4.93;;;2.78;;
60612;SDS011;46443;59.792;17.626;2023-04-08T02:21:47;4.15;;;2.70;;
60612;SDS011;46443;59.792;17.626;2023-04-08T02:24:15;3.80;;;2.53;;
60612;SDS011;46443;59.792;17.626;2023-04-08T02:26:43;5.60;;;2.78;;
60612;SDS011;46443;59.792;17.626;2023-04-08T02:29:13;6.20;;;2.95;;
60612;SDS011;46443;59.792;17.626;2023-04-08T02:31:40;4.15;;;2.58;;
60612;SDS011;46443;59.792;17.626;2023-04-08T02:34:07;5.10;;;2.75;;
60612;SDS011;46443;59.792;17.626;2023-04-08T02:36:34;4.55;;;2.70;;
60612;SDS011;46443;59.792;17.626;2023-04-08T02:39:02;4.18;;;2.63;;
60612;SDS011;46443;59.792;17.626;2023-04-08T02:41:28;5.22;;;2.92;;
60612;SDS011;46443;59.792;17.626;2023-04-08T02:43:54;5.15;;;2.70;;
60612;SDS011;46443;59.792;17.626;2023-04-08T02:46:20;5.60;;;2.70;;
60612;SDS011;46443;59.792;17.626;2023-04-08T02:48:46;5.28;;;2.97;;
60612;SDS011;46443;59.792;17.626;2023-04-08T02:51:12;4.20;;;2.33;;
60612;SDS011;46443;59.792;17.626;2023-04-08T02:53:39;4.28;;;2.42;;
60612;SDS011;46443;59.792;17.626;2023-04-08T02:56:05;4.18;;;2.75;;
60612;SDS011;46443;59.792;17.626;2023-04-08T02:58:31;6.15;;;2.80;;
60612;SDS011;46443;59.792;17.626;2023-04-08T03:00:58;4.70;;;2.60;;
60612;SDS011;46443;59.792;17.626;2023-04-08T03:03:24;4.80;;;2.67;;
60612;SDS011;46443;59.792;17.626;2023-04-08T03:05:53;4.10;;;2.35;;
60612;SDS011;46443;59.792;17.626;2023-04-08T03:08:20;4.22;;;2.47;;
60612;SDS011;46443;59.792;17.626;2023-04-08T03:10:46;4.28;;;3.00;;
60612;SDS011;46443;59.792;17.626;2023-04-08T03:13:13;4.72;;;2.50;;
60612;SDS011;46443;59.792;17.626;2023-04-08T03:15:39;4.10;;;2.50;;
60612;SDS011;46443;59.792;17.626;2023-04-08T03:18:05;2.95;;;2.30;;
60612;SDS011;46443;59.792;17.626;2023-04-08T03:20:31;4.30;;;2.55;;
60612;SDS011;46443;59.792;17.626;2023-04-08T03:22:57;4.80;;;2.53;;
60612;SDS011;46443;59.792;17.626;2023-04-08T03:25:24;4.80;;;2.30;;
60612;SDS011;46443;59.792;17.626;2023-04-08T03:27:50;4.43;;;2.53;;
60612;SDS011;46443;59.792;17.626;2023-04-08T03:30:16;4.07;;;2.45;;
60612;SDS011;46443;59.792;17.626;2023-04-08T03:32:42;4.70;;;2.47;;
60612;SDS011;46443;59.792;17.626;2023-04-08T03:35:08;6.57;;;2.63;;
60612;SDS011;46443;59.792;17.626;2023-04-08T03:37:34;4.53;;;2.50;;
60612;SDS011;46443;59.792;17.626;2023-04-08T03:40:00;4.30;;;2.72;;
60612;SDS011;46443;59.792;17.626;2023-04-08T03:42:26;4.32;;;2.58;;
60612;SDS011;46443;59.792;17.626;2023-04-08T03:44:52;3.88;;;2.30;;
60612;SDS011;46443;59.792;17.626;2023-04-08T03:47:18;4.35;;;2.58;;
60612;SDS011;46443;59.792;17.626;2023-04-08T03:49:44;4.90;;;2.70;;
60612;SDS011;46443;59.792;17.626;2023-04-08T03:52:11;4.03;;;2.47;;
60612;SDS011;46443;59.792;17.626;2023-04-08T03:54:37;4.55;;;2.40;;
60612;SDS011;46443;59.792;17.626;2023-04-08T03:57:03;4.93;;;2.63;;
60612;SDS011;46443;59.792;17.626;2023-04-08T03:59:29;4.78;;;2.50;;
60612;SDS011;46443;59.792;17.626;2023-04-08T04:01:55;5.53;;;2.67;;
60612;SDS011;46443;59.792;17.626;2023-04-08T04:04:22;6.50;;;2.50;;
60612;SDS011;46443;59.792;17.626;2023-04-08T04:06:48;5.00;;;2.97;;
60612;SDS011;46443;59.792;17.626;2023-04-08T04:09:14;4.43;;;2.60;;
60612;SDS011;46443;59.792;17.626;2023-04-08T04:11:40;5.05;;;2.58;;
60612;SDS011;46443;59.792;17.626;2023-04-08T04:14:06;4.82;;;2.78;;
60612;SDS011;46443;59.792;17.626;2023-04-08T04:16:33;4.13;;;2.30;;
60612;SDS011;46443;59.792;17.626;2023-04-08T04:18:59;4.57;;;2.40;;
60612;SDS011;46443;59.792;17.626;2023-04-08T04:21:25;5.18;;;2.63;;
60612;SDS011;46443;59.792;17.626;2023-04-08T04:23:51;4.30;;;2.55;;
60612;SDS011;46443;59.792;17.626;2023-04-08T04:26:17;4.20;;;2.63;;
60612;SDS011;46443;59.792;17.626;2023-04-08T04:28:43;4.78;;;2.53;;
60612;SDS011;46443;59.792;17.626;2023-04-08T04:31:16;4.18;;;2.28;;
60612;SDS011;46443;59.792;17.626;2023-04-08T04:33:43;4.40;;;2.47;;
60612;SDS011;46443;59.792;17.626;2023-04-08T04:36:09;4.45;;;2.42;;
60612;SDS011;46443;59.792;17.626;2023-04-08T04:38:35;4.05;;;2.28;;
60612;SDS011;46443;59.792;17.626;2023-04-08T04:41:02;5.75;;;2.45;;
60612;SDS011;46443;59.792;17.626;2023-04-08T04:43:29;5.03;;;2.45;;
60612;SDS011;46443;59.792;17.626;2023-04-08T04:45:55;3.25;;;2.33;;
60612;SDS011;46443;59.792;17.626;2023-04-08T04:48:21;4.55;;;2.40;;
60612;SDS011;46443;59.792;17.626;2023-04-08T04:50:57;6.18;;;2.83;;
60612;SDS011;46443;59.792;17.626;2023-04-08T04:53:24;4.32;;;2.25;;
60612;SDS011;46443;59.792;17.626;2023-04-08T04:55:50;4.80;;;2.50;;
60612;SDS011;46443;59.792;17.626;2023-04-08T04:58:16;5.47;;;2.53;;
60612;SDS011;46443;59.792;17.626;2023-04-08T05:00:43;3.63;;;2.40;;
60612;SDS011;46443;59.792;17.626;2023-04-08T05:03:10;3.78;;;2.17;;
60612;SDS011;46443;59.792;17.626;2023-04-08T05:05:36;6.10;;;2.40;;
60612;SDS011;46443;59.792;17.626;2023-04-08T05:08:02;5.25;;;2.58;;
60612;SDS011;46443;59.792;17.626;2023-04-08T05:10:28;4.30;;;2.65;;
60612;SDS011;46443;59.792;17.626;2023-04-08T05:12:54;4.82;;;2.25;;
60612;SDS011;46443;59.792;17.626;2023-04-08T05:15:20;4.13;;;2.40;;
60612;SDS011;46443;59.792;17.626;2023-04-08T05:17:46;4.85;;;2.22;;
60612;SDS011;46443;59.792;17.626;2023-04-08T05:20:12;4.63;;;2.55;;
60612;SDS011;46443;59.792;17.626;2023-04-08T05:22:38;4.18;;;2.47;;
60612;SDS011;46443;59.792;17.626;2023-04-08T05:25:05;3.83;;;2.33;;
60612;SDS011;46443;59.792;17.626;2023-04-08T05:27:31;3.60;;;2.22;;
60612;SDS011;46443;59.792;17.626;2023-04-08T05:29:57;4.10;;;2.67;;
60612;SDS011;46443;59.792;17.626;2023-04-08T05:32:23;4.22;;;2.30;;
60612;SDS011;46443;59.792;17.626;2023-04-08T05:34:49;4.05;;;2.50;;
60612;SDS011;46443;59.792;17.626;2023-04-08T05:37:15;3.63;;;2.17;;
60612;SDS011;46443;59.792;17.626;2023-04-08T05:39:41;3.50;;;2.30;;
60612;SDS011;46443;59.792;17.626;2023-04-08T05:42:07;2.85;;;2.08;;
60612;SDS011;46443;59.792;17.626;2023-04-08T05:44:33;3.67;;;2.22;;
60612;SDS011;46443;59.792;17.626;2023-04-08T05:46:59;3.75;;;2.33;;
60612;SDS011;46443;59.792;17.626;2023-04-08T05:49:26;3.60;;;2.60;;
60612;SDS011;46443;59.792;17.626;2023-04-08T05:51:52;4.63;;;2.60;;
60612;SDS011;46443;59.792;17.626;2023-04-08T05:54:18;4.53;;;2.58;;
60612;SDS011;46443;59.792;17.626;2023-04-08T05:56:44;5.45;;;2.38;;
60612;SDS011;46443;59.792;17.626;2023-04-08T05:59:11;3.92;;;2.40;;
60612;SDS011;46443;59.792;17.626;2023-04-08T06:01:37;4.65;;;2.63;;
60612;SDS011;46443;59.792;17.626;2023-04-08T06:04:04;3.45;;;2.25;;
60612;SDS011;46443;59.792;17.626;2023-04-08T06:06:30;6.28;;;2.50;;
60612;SDS011;46443;59.792;17.626;2023-04-08T06:08:56;3.75;;;2.55;;
60612;SDS011;46443;59.792;17.626;2023-04-08T06:11:22;5.85;;;2.30;;
60612;SDS011;46443;59.792;17.626;2023-04-08T06:13:48;3.58;;;2.30;;
60612;SDS011;46443;59.792;17.626;2023-04-08T06:16:15;3.83;;;2.20;;
60612;SDS011;46443;59.792;17.626;2023-04-08T06:18:41;3.72;;;2.30;;
60612;SDS011;46443;59.792;17.626;2023-04-08T06:21:07;6.38;;;2.20;;
60612;SDS011;46443;59.792;17.626;2023-04-08T06:23:33;3.88;;;2.10;;
60612;SDS011;46443;59.792;17.626;2023-04-08T06:26:00;4.88;;;2.42;;
60612;SDS011;46443;59.792;17.626;2023-04-08T06:28:27;2.75;;;1.98;;
60612;SDS011;46443;59.792;17.626;2023-04-08T06:30:54;3.47;;;2.42;;
60612;SDS011;46443;59.792;17.626;2023-04-08T06:33:20;3.22;;;2.10;;
60612;SDS011;46443;59.792;17.626;2023-04-08T06:35:47;3.25;;;2.28;;
60612;SDS011;46443;59.792;17.626;2023-04-08T06:38:13;6.45;;;2.28;;
60612;SDS011;46443;59.792;17.626;2023-04-08T06:40:39;3.33;;;2.10;;
60612;SDS011;46443;59.792;17.626;2023-04-08T06:43:05;3.65;;;2.30;;
60612;SDS011;46443;59.792;17.626;2023-04-08T06:45:32;3.10;;;2.30;;
60612;SDS011;46443;59.792;17.626;2023-04-08T06:47:58;3.17;;;2.17;;
60612;SDS011;46443;59.792;17.626;2023-04-08T06:50:24;4.72;;;2.42;;
60612;SDS011;46443;59.792;17.626;2023-04-08T06:52:50;3.00;;;2.05;;
60612;SDS011;46443;59.792;17.626;2023-04-08T06:55:16;3.65;;;2.22;;
60612;SDS011;46443;59.792;17.626;2023-04-08T06:57:42;3.90;;;2.30;;
60612;SDS011;46443;59.792;17.626;2023-04-08T07:00:09;3.70;;;2.17;;
60612;SDS011;46443;59.792;17.626;2023-04-08T07:02:35;5.15;;;2.30;;
60612;SDS011;46443;59.792;17.626;2023-04-08T07:05:01;3.63;;;2.00;;
60612;SDS011;46443;59.792;17.626;2023-04-08T07:07:28;4.53;;;2.28;;
60612;SDS011;46443;59.792;17.626;2023-04-08T07:09:54;3.85;;;1.77;;
60612;SDS011;46443;59.792;17.626;2023-04-08T07:12:20;2.72;;;1.98;;
60612;SDS011;46443;59.792;17.626;2023-04-08T07:14:46;3.58;;;2.03;;
60612;SDS011;46443;59.792;17.626;2023-04-08T07:17:12;3.05;;;1.90;;
60612;SDS011;46443;59.792;17.626;2023-04-08T07:19:38;2.55;;;1.80;;
60612;SDS011;46443;59.792;17.626;2023-04-08T07:22:05;3.40;;;2.00;;
60612;SDS011;46443;59.792;17.626;2023-04-08T07:24:31;3.65;;;1.90;;
60612;SDS011;46443;59.792;17.626;2023-04-08T07:26:58;3.38;;;1.92;;
60612;SDS011;46443;59.792;17.626;2023-04-08T07:29:24;3.53;;;2.17;;
60612;SDS011;46443;59.792;17.626;2023-04-08T07:31:50;2.88;;;1.70;;
60612;SDS011;46443;59.792;17.626;2023-04-08T07:34:16;3.85;;;2.00;;
60612;SDS011;46443;59.792;17.626;2023-04-08T07:36:42;4.07;;;2.13;;
60612;SDS011;46443;59.792;17.626;2023-04-08T07:39:08;3.10;;;1.90;;
60612;SDS011;46443;59.792;17.626;2023-04-08T07:41:34;3.27;;;2.17;;
60612;SDS011;46443;59.792;17.626;2023-04-08T07:44:00;2.93;;;1.83;;
60612;SDS011;46443;59.792;17.626;2023-04-08T07:46:26;4.13;;;2.20;;
60612;SDS011;46443;59.792;17.626;2023-04-08T07:48:53;3.13;;;2.00;;
60612;SDS011;46443;59.792;17.626;2023-04-08T07:51:19;2.83;;;1.80;;
60612;SDS011;46443;59.792;17.626;2023-04-08T07:53:45;3.57;;;2.07;;
60612;SDS011;46443;59.792;17.626;2023-04-08T07:56:12;4.03;;;2.17;;
60612;SDS011;46443;59.792;17.626;2023-04-08T07:58:38;4.33;;;2.17;;
60612;SDS011;46443;59.792;17.626;2023-04-08T08:01:13;2.60;;;1.60;;
60612;SDS011;46443;59.792;17.626;2023-04-08T08:03:40;3.17;;;2.00;;
60612;SDS011;46443;59.792;17.626;2023-04-08T08:06:06;3.63;;;2.10;;
60612;SDS011;46443;59.792;17.626;2023-04-08T08:08:32;2.97;;;1.93;;
60612;SDS011;46443;59.792;17.626;2023-04-08T08:11:00;3.43;;;2.00;;
60612;SDS011;46443;59.792;17.626;2023-04-08T08:13:26;6.93;;;2.20;;
60612;SDS011;46443;59.792;17.626;2023-04-08T08:15:52;2.73;;;1.80;;
60612;SDS011;46443;59.792;17.626;2023-04-08T08:18:18;3.90;;;2.30;;
60612;SDS011;46443;59.792;17.626;2023-04-08T08:20:45;3.07;;;2.10;;
60612;SDS011;46443;59.792;17.626;2023-04-08T08:23:11;4.77;;;2.20;;
60612;SDS011;46443;59.792;17.626;2023-04-08T08:25:37;3.83;;;1.90;;
60612;SDS011;46443;59.792;17.626;2023-04-08T08:28:03;3.77;;;2.10;;
60612;SDS011;46443;59.792;17.626;2023-04-08T08:30:29;5.93;;;2.33;;
60612;SDS011;46443;59.792;17.626;2023-04-08T08:32:55;3.93;;;1.77;;
60612;SDS011;46443;59.792;17.626;2023-04-08T08:35:23;2.90;;;1.80;;
60612;SDS011;46443;59.792;17.626;2023-04-08T08:37:49;3.50;;;1.77;;
60612;SDS011;46443;59.792;17.626;2023-04-08T08:40:15;2.70;;;1.50;;
60612;SDS011;46443;59.792;17.626;2023-04-08T08:42:41;2.93;;;1.90;;
60612;SDS011;46443;59.792;17.626;2023-04-08T08:45:15;3.47;;;1.67;;
60612;SDS011;46443;59.792;17.626;2023-04-08T08:47:41;3.07;;;1.80;;
60612;SDS011;46443;59.792;17.626;2023-04-08T08:50:07;5.10;;;2.47;;
60612;SDS011;46443;59.792;17.626;2023-04-08T08:52:33;2.93;;;1.63;;
60612;SDS011;46443;59.792;17.626;2023-04-08T08:55:00;3.70;;;2.07;;
60612;SDS011;46443;59.792;17.626;2023-04-08T08:57:26;3.63;;;1.80;;
60612;SDS011;46443;59.792;17.626;2023-04-08T08:59:52;5.53;;;1.70;;
60612;SDS011;46443;59.792;17.626;2023-04-08T09:02:25;2.77;;;1.67;;
60612;SDS011;46443;59.792;17.626;2023-04-08T09:04:55;4.33;;;1.67;;
60612;SDS011;46443;59.792;17.626;2023-04-08T09:07:23;2.70;;;1.70;;
60612;SDS011;46443;59.792;17.626;2023-04-08T09:09:50;3.77;;;1.90;;
60612;SDS011;46443;59.792;17.626;2023-04-08T09:12:17;2.77;;;1.83;;
60612;SDS011;46443;59.792;17.626;2023-04-08T09:14:43;3.77;;;1.97;;
60612;SDS011;46443;59.792;17.626;2023-04-08T09:17:09;2.67;;;1.77;;
60612;SDS011;46443;59.792;17.626;2023-04-08T09:19:35;2.50;;;1.83;;
60612;SDS011;46443;59.792;17.626;2023-04-08T09:22:09;3.73;;;2.00;;
60612;SDS011;46443;59.792;17.626;2023-04-08T09:24:35;2.93;;;2.20;;
60612;SDS011;46443;59.792;17.626;2023-04-08T09:27:02;4.03;;;1.90;;
60612;SDS011;46443;59.792;17.626;2023-04-08T09:29:28;3.90;;;1.90;;
60612;SDS011;46443;59.792;17.626;2023-04-08T09:31:58;5.07;;;2.53;;
60612;SDS011;46443;59.792;17.626;2023-04-08T09:36:51;4.77;;;2.10;;
60612;SDS011;46443;59.792;17.626;2023-04-08T09:39:18;2.73;;;1.93;;
60612;SDS011;46443;59.792;17.626;2023-04-08T09:41:46;4.13;;;2.03;;
60612;SDS011;46443;59.792;17.626;2023-04-08T09:44:12;3.33;;;2.03;;
60612;SDS011;46443;59.792;17.626;2023-04-08T09:54:55;2.63;;;1.87;;
60612;SDS011;46443;59.792;17.626;2023-04-08T10:00:09;2.83;;;1.80;;
60612;SDS011;46443;59.792;17.626;2023-04-08T10:02:40;3.23;;;2.03;;
60612;SDS011;46443;59.792;17.626;2023-04-08T10:05:07;3.93;;;1.70;;
60612;SDS011;46443;59.792;17.626;2023-04-08T10:07:34;4.40;;;2.20;;
60612;SDS011;46443;59.792;17.626;2023-04-08T10:10:00;2.77;;;1.70;;
60612;SDS011;46443;59.792;17.626;2023-04-08T10:12:27;3.20;;;1.97;;
60612;SDS011;46443;59.792;17.626;2023-04-08T10:17:38;2.53;;;1.60;;
60612;SDS011;46443;59.792;17.626;2023-04-08T10:20:04;3.13;;;1.90;;
60612;SDS011;46443;59.792;17.626;2023-04-08T10:22:50;2.97;;;1.90;;
60612;SDS011;46443;59.792;17.626;2023-04-08T10:27:43;1.90;;;1.70;;
60612;SDS011;46443;59.792;17.626;2023-04-08T10:30:42;2.27;;;1.60;;
60612;SDS011;46443;59.792;17.626;2023-04-08T10:33:01;3.30;;;1.50;;
60612;SDS011;46443;59.792;17.626;2023-04-08T10:35:35;2.60;;;1.60;;
60612;SDS011;46443;59.792;17.626;2023-04-08T10:38:01;2.60;;;1.53;;
60612;SDS011;46443;59.792;17.626;2023-04-08T10:40:28;2.30;;;1.57;;
60612;SDS011;46443;59.792;17.626;2023-04-08T10:42:55;2.20;;;1.40;;
60612;SDS011;46443;59.792;17.626;2023-04-08T10:45:21;2.17;;;1.70;;
60612;SDS011;46443;59.792;17.626;2023-04-08T10:47:47;2.50;;;1.53;;
60612;SDS011;46443;59.792;17.626;2023-04-08T10:50:16;2.37;;;1.50;;
60612;SDS011;46443;59.792;17.626;2023-04-08T10:52:49;2.50;;;1.60;;
60612;SDS011;46443;59.792;17.626;2023-04-08T10:55:20;1.80;;;1.40;;
60612;SDS011;46443;59.792;17.626;2023-04-08T10:57:47;2.93;;;1.70;;
60612;SDS011;46443;59.792;17.626;2023-04-08T11:00:16;3.23;;;1.50;;
60612;SDS011;46443;59.792;17.626;2023-04-08T11:02:42;3.63;;;1.52;;
60612;SDS011;46443;59.792;17.626;2023-04-08T11:05:09;3.53;;;1.50;;
60612;SDS011;46443;59.792;17.626;2023-04-08T11:07:39;2.43;;;1.50;;
60612;SDS011;46443;59.792;17.626;2023-04-08T11:10:06;1.73;;;1.50;;
60612;SDS011;46443;59.792;17.626;2023-04-08T11:12:33;1.33;;;1.20;;
60612;SDS011;46443;59.792;17.626;2023-04-08T11:15:00;2.50;;;1.60;;
60612;SDS011;46443;59.792;17.626;2023-04-08T11:17:27;4.40;;;1.80;;
60612;SDS011;46443;59.792;17.626;2023-04-08T11:19:54;1.83;;;1.50;;
60612;SDS011;46443;59.792;17.626;2023-04-08T11:22:20;3.43;;;1.40;;
60612;SDS011;46443;59.792;17.626;2023-04-08T11:24:48;2.27;;;1.63;;
60612;SDS011;46443;59.792;17.626;2023-04-08T11:27:14;1.87;;;1.50;;
60612;SDS011;46443;59.792;17.626;2023-04-08T11:29:40;1.93;;;1.47;;
60612;SDS011;46443;59.792;17.626;2023-04-08T11:32:07;1.50;;;1.40;;
60612;SDS011;46443;59.792;17.626;2023-04-08T11:34:37;3.20;;;1.70;;
60612;SDS011;46443;59.792;17.626;2023-04-08T11:37:04;1.83;;;1.30;;
60612;SDS011;46443;59.792;17.626;2023-04-08T11:39:30;2.60;;;1.60;;
60612;SDS011;46443;59.792;17.626;2023-04-08T11:41:56;2.73;;;1.70;;
60612;SDS011;46443;59.792;17.626;2023-04-08T11:44:30;2.17;;;1.50;;
60612;SDS011;46443;59.792;17.626;2023-04-08T11:46:57;3.83;;;1.60;;
60612;SDS011;46443;59.792;17.626;2023-04-08T11:49:23;2.77;;;1.50;;
60612;SDS011;46443;59.792;17.626;2023-04-08T11:51:53;1.90;;;1.30;;
60612;SDS011;46443;59.792;17.626;2023-04-08T11:54:27;2.47;;;1.70;;
60612;SDS011;46443;59.792;17.626;2023-04-08T11:56:53;2.53;;;1.60;;
60612;SDS011;46443;59.792;17.626;2023-04-08T11:59:20;4.40;;;1.80;;
60612;SDS011;46443;59.792;17.626;2023-04-08T12:01:46;1.67;;;1.50;;
60612;SDS011;46443;59.792;17.626;2023-04-08T12:04:12;5.30;;;1.60;;
60612;SDS011;46443;59.792;17.626;2023-04-08T12:06:38;3.37;;;1.50;;
60612;SDS011;46443;59.792;17.626;2023-04-08T12:09:07;2.65;;;1.50;;
60612;SDS011;46443;59.792;17.626;2023-04-08T12:11:33;2.20;;;1.40;;
60612;SDS011;46443;59.792;17.626;2023-04-08T12:13:59;2.43;;;1.70;;
60612;SDS011;46443;59.792;17.626;2023-04-08T12:16:25;2.00;;;1.40;;
60612;SDS011;46443;59.792;17.626;2023-04-08T12:18:51;1.67;;;1.40;;
60612;SDS011;46443;59.792;17.626;2023-04-08T12:21:18;1.73;;;1.40;;
60612;SDS011;46443;59.792;17.626;2023-04-08T12:23:44;1.63;;;1.27;;
60612;SDS011;46443;59.792;17.626;2023-04-08T12:26:10;1.33;;;1.23;;
60612;SDS011;46443;59.792;17.626;2023-04-08T12:28:37;1.60;;;1.40;;
60612;SDS011;46443;59.792;17.626;2023-04-08T12:31:03;3.10;;;1.47;;
60612;SDS011;46443;59.792;17.626;2023-04-08T12:33:29;2.20;;;1.47;;
60612;SDS011;46443;59.792;17.626;2023-04-08T12:35:56;1.87;;;1.37;;
60612;SDS011;46443;59.792;17.626;2023-04-08T12:38:25;2.85;;;1.50;;
60612;SDS011;46443;59.792;17.626;2023-04-08T12:40:51;1.70;;;1.40;;
60612;SDS011;46443;59.792;17.626;2023-04-08T12:43:17;3.60;;;1.40;;
60612;SDS011;46443;59.792;17.626;2023-04-08T12:45:44;3.63;;;1.30;;
60612;SDS011;46443;59.792;17.626;2023-04-08T12:48:10;2.90;;;1.50;;
60612;SDS011;46443;59.792;17.626;2023-04-08T12:50:36;2.43;;;1.50;;
60612;SDS011;46443;59.792;17.626;2023-04-08T12:53:02;5.70;;;1.40;;
60612;SDS011;46443;59.792;17.626;2023-04-08T12:55:28;1.73;;;1.47;;
60612;SDS011;46443;59.792;17.626;2023-04-08T12:57:54;2.83;;;1.43;;
60612;SDS011;46443;59.792;17.626;2023-04-08T13:00:20;2.50;;;1.40;;
60612;SDS011;46443;59.792;17.626;2023-04-08T13:02:46;1.50;;;1.33;;
60612;SDS011;46443;59.792;17.626;2023-04-08T13:05:12;1.67;;;1.40;;
60612;SDS011;46443;59.792;17.626;2023-04-08T13:07:39;2.30;;;1.30;;
60612;SDS011;46443;59.792;17.626;2023-04-08T13:10:06;2.03;;;1.40;;
60612;SDS011;46443;59.792;17.626;2023-04-08T13:12:33;2.03;;;1.30;;
60612;SDS011;46443;59.792;17.626;2023-04-08T13:14:59;1.97;;;1.33;;
60612;SDS011;46443;59.792;17.626;2023-04-08T13:17:26;1.97;;;1.27;;
60612;SDS011;46443;59.792;17.626;2023-04-08T13:19:52;1.90;;;1.40;;
60612;SDS011;46443;59.792;17.626;2023-04-08T13:22:18;2.60;;;1.60;;
60612;SDS011;46443;59.792;17.626;2023-04-08T13:24:44;1.80;;;1.50;;
60612;SDS011;46443;59.792;17.626;2023-04-08T13:27:10;1.63;;;1.30;;
60612;SDS011;46443;59.792;17.626;2023-04-08T13:29:36;1.30;;;1.20;;
60612;SDS011;46443;59.792;17.626;2023-04-08T13:32:02;1.30;;;1.20;;
60612;SDS011;46443;59.792;17.626;2023-04-08T13:34:28;2.17;;;1.30;;
60612;SDS011;46443;59.792;17.626;2023-04-08T13:36:55;2.83;;;1.40;;
60612;SDS011;46443;59.792;17.626;2023-04-08T13:39:21;1.43;;;1.10;;
60612;SDS011;46443;59.792;17.626;2023-04-08T13:41:47;1.83;;;1.47;;
60612;SDS011;46443;59.792;17.626;2023-04-08T13:44:13;1.70;;;1.23;;
60612;SDS011;46443;59.792;17.626;2023-04-08T13:46:41;2.00;;;1.23;;
60612;SDS011;46443;59.792;17.626;2023-04-08T13:49:07;1.20;;;1.10;;
60612;SDS011;46443;59.792;17.626;2023-04-08T13:51:33;1.53;;;1.23;;
60612;SDS011;46443;59.792;17.626;2023-04-08T13:54:00;1.50;;;1.10;;
60612;SDS011;46443;59.792;17.626;2023-04-08T13:56:26;1.40;;;1.30;;
60612;SDS011;46443;59.792;17.626;2023-04-08T13:58:52;1.67;;;1.50;;
60612;SDS011;46443;59.792;17.626;2023-04-08T14:01:18;2.43;;;1.30;;
60612;SDS011;46443;59.792;17.626;2023-04-08T14:03:44;3.37;;;1.40;;
60612;SDS011;46443;59.792;17.626;2023-04-08T14:06:11;2.07;;;1.33;;
60612;SDS011;46443;59.792;17.626;2023-04-08T14:08:37;2.30;;;1.37;;
60612;SDS011;46443;59.792;17.626;2023-04-08T14:11:03;1.70;;;1.40;;
60612;SDS011;46443;59.792;17.626;2023-04-08T14:13:29;1.57;;;1.30;;
60612;SDS011;46443;59.792;17.626;2023-04-08T14:15:56;1.73;;;1.23;;
60612;SDS011;46443;59.792;17.626;2023-04-08T14:18:22;4.37;;;1.60;;
60612;SDS011;46443;59.792;17.626;2023-04-08T14:20:49;3.40;;;1.30;;
60612;SDS011;46443;59.792;17.626;2023-04-08T14:23:15;1.77;;;1.27;;
60612;SDS011;46443;59.792;17.626;2023-04-08T14:25:41;1.90;;;1.17;;
60612;SDS011;46443;59.792;17.626;2023-04-08T14:28:08;1.37;;;1.27;;
60612;SDS011;46443;59.792;17.626;2023-04-08T14:30:34;1.80;;;1.40;;
60612;SDS011;46443;59.792;17.626;2023-04-08T14:33:00;1.83;;;1.20;;
60612;SDS011;46443;59.792;17.626;2023-04-08T14:35:26;2.43;;;1.30;;
60612;SDS011;46443;59.792;17.626;2023-04-08T14:37:52;2.67;;;1.30;;
60612;SDS011;46443;59.792;17.626;2023-04-08T14:40:18;1.20;;;1.10;;
60612;SDS011;46443;59.792;17.626;2023-04-08T14:42:44;1.63;;;1.30;;
60612;SDS011;46443;59.792;17.626;2023-04-08T14:45:13;1.10;;;1.10;;
60612;SDS011;46443;59.792;17.626;2023-04-08T14:47:39;2.50;;;1.30;;
60612;SDS011;46443;59.792;17.626;2023-04-08T14:50:06;1.77;;;1.30;;
60612;SDS011;46443;59.792;17.626;2023-04-08T14:52:32;2.40;;;1.30;;
60612;SDS011;46443;59.792;17.626;2023-04-08T14:54:58;1.90;;;1.20;;
60612;SDS011;46443;59.792;17.626;2023-04-08T14:57:24;2.63;;;1.20;;